createdAt,value
2022-08-25T00:00:44.598Z,7.30
2022-08-25T00:05:48.140Z,7.80
2022-08-25T00:10:53.988Z,7.10
2022-08-25T00:16:06.597Z,9.80
2022-08-25T00:21:09.526Z,6.90
2022-08-25T00:26:13.868Z,9.10
2022-08-25T00:31:20.383Z,9.90
2022-08-25T00:36:23.254Z,9.10
2022-08-25T00:41:26.545Z,8.30
2022-08-25T00:46:36.012Z,9.50
2022-08-25T00:51:38.831Z,8.20
2022-08-25T00:56:42.606Z,11.80
2022-08-25T01:01:45.395Z,7.40
2022-08-25T01:06:49.237Z,10.70
2022-08-25T01:11:52.890Z,10.20
2022-08-25T01:16:55.688Z,8.40
2022-08-25T01:21:58.451Z,10.00
2022-08-25T01:27:01.465Z,8.20
2022-08-25T01:32:09.005Z,8.30
2022-08-25T01:37:14.032Z,7.20
2022-08-25T01:42:25.242Z,8.70
2022-08-25T01:47:28.166Z,12.20
2022-08-25T01:52:44.862Z,7.90
2022-08-25T01:57:47.727Z,6.70
2022-08-25T02:02:54.011Z,8.40
2022-08-25T02:07:57.045Z,6.70
2022-08-25T02:13:00.462Z,9.00
2022-08-25T02:18:03.185Z,8.30
2022-08-25T02:23:06.285Z,9.70
2022-08-25T02:28:10.507Z,10.40
2022-08-25T02:33:13.180Z,9.10
2022-08-25T02:38:15.891Z,9.90
2022-08-25T02:43:18.556Z,9.20
2022-08-25T02:48:21.997Z,27.60
2022-08-25T02:53:24.685Z,15.70
2022-08-25T02:58:28.234Z,10.30
2022-08-25T03:03:31.142Z,10.00
2022-08-25T03:08:33.873Z,6.90
2022-08-25T03:13:37.298Z,8.40
2022-08-25T03:18:42.126Z,9.20
2022-08-25T03:23:45.858Z,10.90
2022-08-25T03:28:48.559Z,10.20
2022-08-25T03:33:51.258Z,7.40
2022-08-25T03:38:55.112Z,9.20
2022-08-25T03:43:58.356Z,9.50
2022-08-25T03:49:05.719Z,9.50
2022-08-25T03:54:10.560Z,12.80
2022-08-25T03:59:13.918Z,12.10
2022-08-25T04:04:16.993Z,11.40
2022-08-25T04:09:19.937Z,7.50
2022-08-25T04:14:23.866Z,11.80
2022-08-25T04:19:27.279Z,7.70
2022-08-25T04:24:30.253Z,10.90
2022-08-25T04:29:32.941Z,10.00
2022-08-25T04:34:35.913Z,8.70
2022-08-25T04:39:38.601Z,12.50
2022-08-25T04:44:42.064Z,11.90
2022-08-25T04:49:44.761Z,9.50
2022-08-25T04:54:48.097Z,10.10
2022-08-25T04:59:50.979Z,8.70
2022-08-25T05:04:55.569Z,11.60
2022-08-25T05:09:58.274Z,9.90
2022-08-25T05:15:20.991Z,13.00
2022-08-25T05:20:24.862Z,14.90
2022-08-25T05:25:27.565Z,20.20
2022-08-25T05:30:30.542Z,28.70
2022-08-25T05:35:33.482Z,22.50
2022-08-25T05:40:36.270Z,14.90
2022-08-25T05:45:39.463Z,15.90
2022-08-25T05:50:43.123Z,20.60
2022-08-25T05:55:45.971Z,18.70
2022-08-25T06:00:49.346Z,11.30
2022-08-25T06:05:52.131Z,10.70
2022-08-25T06:10:54.798Z,11.30
2022-08-25T06:16:02.145Z,10.10
2022-08-25T06:21:12.887Z,7.20
2022-08-25T06:26:20.756Z,13.50
2022-08-25T06:31:24.708Z,10.00
2022-08-25T06:36:27.991Z,10.90
2022-08-25T06:41:36.959Z,9.60
2022-08-25T06:46:40.039Z,11.40
2022-08-25T06:51:43.006Z,9.20
2022-08-25T06:56:45.819Z,12.70
2022-08-25T07:01:49.671Z,9.70
2022-08-25T07:06:53.070Z,8.90
2022-08-25T07:11:55.916Z,8.80
2022-08-25T07:16:58.666Z,9.00
2022-08-25T07:22:02.310Z,7.40
2022-08-25T07:27:05.538Z,11.40
2022-08-25T07:32:08.261Z,7.50
2022-08-25T07:37:23.774Z,9.00
2022-08-25T07:42:37.932Z,10.70
2022-08-25T07:47:40.698Z,9.50
2022-08-25T07:52:43.379Z,10.10
2022-08-25T07:57:48.947Z,10.90
2022-08-25T08:02:57.836Z,8.40
2022-08-25T08:08:01.014Z,11.30
2022-08-25T08:13:07.013Z,9.80
2022-08-25T08:18:11.009Z,14.30
2022-08-25T08:23:15.862Z,10.00
2022-08-25T08:28:18.613Z,8.00
2022-08-25T08:33:22.854Z,9.30
2022-08-25T08:38:27.176Z,11.80
2022-08-25T08:43:33.437Z,10.00
2022-08-25T08:49:05.763Z,9.20
2022-08-25T08:54:16.570Z,13.50
2022-08-25T08:59:30.195Z,10.80
2022-08-25T09:04:47.057Z,9.70
2022-08-25T09:09:52.263Z,8.50
2022-08-25T09:15:03.115Z,9.30
2022-08-25T09:20:58.054Z,10.60
2022-08-25T09:26:30.236Z,11.70
2022-08-25T09:31:38.812Z,13.10
2022-08-25T09:36:41.697Z,9.90
2022-08-25T09:41:51.548Z,14.70
2022-08-25T09:47:02.130Z,10.00
2022-08-25T09:52:32.890Z,10.30
2022-08-25T09:57:52.731Z,9.20
2022-08-25T10:03:22.471Z,13.20
2022-08-25T10:08:39.671Z,12.60
2022-08-25T10:19:06.685Z,15.70
2022-08-25T10:24:12.039Z,10.80
2022-08-25T10:29:44.157Z,11.30
2022-08-25T10:34:51.623Z,15.10
2022-08-25T10:40:27.869Z,11.30
2022-08-25T10:45:43.692Z,12.30
2022-08-25T10:50:55.387Z,17.30
2022-08-25T10:56:12.573Z,15.40
2022-08-25T11:01:43.751Z,12.70
2022-08-25T11:06:50.339Z,15.90
2022-08-25T11:12:01.525Z,19.30
2022-08-25T11:17:18.110Z,17.00
2022-08-25T11:22:27.618Z,19.10
2022-08-25T11:27:45.916Z,17.20
2022-08-25T11:32:51.830Z,18.30
2022-08-25T11:38:19.245Z,15.40
2022-08-25T11:43:53.270Z,23.20
2022-08-25T11:49:37.494Z,19.50
2022-08-25T11:54:48.622Z,19.70
2022-08-25T12:00:00.526Z,15.00
2022-08-25T12:05:15.575Z,20.10
2022-08-25T12:10:22.727Z,15.40
2022-08-25T12:15:31.447Z,12.90
2022-08-25T12:20:57.128Z,12.60
2022-08-25T12:26:11.096Z,13.00
2022-08-25T12:31:31.688Z,12.00
2022-08-25T12:36:35.749Z,21.50
2022-08-25T12:41:54.329Z,15.10
2022-08-25T12:47:08.009Z,17.50
2022-08-25T12:52:17.739Z,18.80
2022-08-25T12:57:25.047Z,15.30
2022-08-25T13:03:01.539Z,15.70
2022-08-25T13:08:22.033Z,15.90
2022-08-25T13:13:45.831Z,18.00
2022-08-25T13:18:51.643Z,13.90
2022-08-25T13:24:01.266Z,16.40
2022-08-25T13:29:13.462Z,17.30
2022-08-25T13:34:30.439Z,18.70
2022-08-25T13:39:55.317Z,15.20
2022-08-25T13:44:58.874Z,18.20
2022-08-25T13:50:35.820Z,17.40
2022-08-25T13:55:52.331Z,17.60
2022-08-25T14:01:22.829Z,16.20
2022-08-25T14:06:31.143Z,17.60
2022-08-25T14:11:50.059Z,20.60
2022-08-25T14:17:12.042Z,18.30
2022-08-25T14:22:25.718Z,16.10
2022-08-25T14:27:28.513Z,15.10
2022-08-25T14:32:31.207Z,13.70
2022-08-25T14:37:33.927Z,15.30
2022-08-25T14:42:37.654Z,18.10
2022-08-25T14:47:40.620Z,19.60
2022-08-25T14:52:44.370Z,17.30
2022-08-25T14:57:47.055Z,16.40
2022-08-25T15:02:51.654Z,17.30
2022-08-25T15:08:14.926Z,15.40
2022-08-25T15:13:17.937Z,13.40
2022-08-25T15:18:22.553Z,13.40
2022-08-25T15:23:25.851Z,14.00
2022-08-25T15:28:29.494Z,15.40
2022-08-25T15:33:33.600Z,18.30
2022-08-25T15:38:36.287Z,21.00
2022-08-25T15:43:39.597Z,14.90
2022-08-25T15:48:42.478Z,18.50
2022-08-25T15:53:46.450Z,18.50
2022-08-25T15:58:50.314Z,22.80
2022-08-25T16:08:56.917Z,21.50
2022-08-25T16:13:59.664Z,16.00
2022-08-25T16:19:02.477Z,21.30
2022-08-25T16:24:07.939Z,26.60
2022-08-25T16:29:12.553Z,23.50
2022-08-25T16:34:15.266Z,22.00
2022-08-25T16:39:19.280Z,21.00
2022-08-25T16:44:24.543Z,23.60
2022-08-25T16:49:28.673Z,18.00
2022-08-25T16:54:50.146Z,16.50
2022-08-25T16:59:53.751Z,22.10
2022-08-25T17:04:56.450Z,19.00
2022-08-25T17:10:05.277Z,16.30
2022-08-25T17:15:08.804Z,12.40
2022-08-25T17:20:11.674Z,20.70
2022-08-25T17:25:14.762Z,20.40
2022-08-25T17:30:17.972Z,20.20
2022-08-25T17:35:20.872Z,25.20
2022-08-25T17:40:24.954Z,23.20
2022-08-25T17:45:30.099Z,16.90
2022-08-25T17:50:36.208Z,18.60
2022-08-25T17:55:42.322Z,20.80
2022-08-25T18:00:47.134Z,18.60
2022-08-25T18:05:50.431Z,18.40
2022-08-25T18:10:53.301Z,18.30
2022-08-25T18:15:56.013Z,17.70
2022-08-25T18:20:58.738Z,18.50
2022-08-25T18:26:02.667Z,17.20
2022-08-25T18:31:06.028Z,14.40
2022-08-25T18:36:10.156Z,17.20
2022-08-25T18:41:13.610Z,16.00
2022-08-25T18:46:16.949Z,19.60
2022-08-25T18:51:22.892Z,19.80
2022-08-25T18:56:26.843Z,16.30
2022-08-25T19:01:30.107Z,17.80
2022-08-25T19:06:33.271Z,18.60
2022-08-25T19:11:36.040Z,17.90
2022-08-25T19:16:41.390Z,15.60
2022-08-25T19:21:44.901Z,22.00
2022-08-25T19:26:54.520Z,18.20
2022-08-25T19:31:58.544Z,15.90
2022-08-25T19:37:05.276Z,16.90
2022-08-25T19:42:31.684Z,20.40
2022-08-25T19:47:32.121Z,20.60
2022-08-25T19:52:35.236Z,16.30
2022-08-25T19:57:42.676Z,18.40
2022-08-25T20:02:47.387Z,20.30
2022-08-25T20:07:53.226Z,13.50
2022-08-25T20:12:56.504Z,18.50
2022-08-25T20:18:01.054Z,19.70
2022-08-25T20:23:25.105Z,23.20
2022-08-25T20:28:30.625Z,17.30
2022-08-25T20:33:33.346Z,22.90
2022-08-25T20:38:36.489Z,19.10
2022-08-25T20:43:41.313Z,20.50
2022-08-25T20:48:44.554Z,16.50
2022-08-25T20:53:47.613Z,13.50
2022-08-25T20:58:50.537Z,21.60
2022-08-25T21:03:53.447Z,25.30
2022-08-25T21:08:56.214Z,19.10
2022-08-25T21:13:59.455Z,17.90
2022-08-25T21:19:02.359Z,20.90
2022-08-25T21:24:09.149Z,17.80
2022-08-25T21:29:15.345Z,21.80
2022-08-25T21:34:20.365Z,16.40
2022-08-25T21:39:26.288Z,14.00
2022-08-25T21:49:37.532Z,16.10
2022-08-25T21:54:40.606Z,17.60
2022-08-25T21:59:43.667Z,24.10
2022-08-25T22:04:48.744Z,21.90
2022-08-25T22:09:51.904Z,14.60
2022-08-25T22:14:55.424Z,18.80
2022-08-25T22:19:58.969Z,20.90
2022-08-25T22:25:01.789Z,20.50
2022-08-25T22:30:05.471Z,17.80
2022-08-25T22:35:09.463Z,15.40
2022-08-25T22:40:13.905Z,14.10
2022-08-25T22:45:17.355Z,17.50
2022-08-25T22:50:20.120Z,16.40
2022-08-25T22:55:23.846Z,18.70
2022-08-25T23:00:26.982Z,13.90
2022-08-25T23:05:29.725Z,15.20
2022-08-25T23:10:32.945Z,18.50
2022-08-25T23:15:35.997Z,13.70
2022-08-25T23:20:58.721Z,18.80
2022-08-25T23:26:05.262Z,18.70
2022-08-25T23:31:11.485Z,14.20
2022-08-25T23:36:15.561Z,16.00
2022-08-25T23:41:21.960Z,13.20
2022-08-25T23:46:26.725Z,10.50
2022-08-25T23:51:33.586Z,12.40
2022-08-25T23:56:37.215Z,9.00
